createdAt,value
2023-04-26T00:00:46.967Z,100754.56
2023-04-26T00:03:17.650Z,100754.91
2023-04-26T00:05:47.897Z,100757.78
2023-04-26T00:08:18.403Z,100764.34
2023-04-26T00:10:48.288Z,100765.22
2023-04-26T00:13:18.682Z,100771.63
2023-04-26T00:15:48.725Z,100780.88
2023-04-26T00:18:19.267Z,100783.00
2023-04-26T00:20:49.426Z,100790.94
2023-04-26T00:23:19.860Z,100776.28
2023-04-26T00:25:49.992Z,100768.81
2023-04-26T00:28:20.492Z,100767.75
2023-04-26T00:30:52.352Z,100768.78
2023-04-26T00:33:22.914Z,100775.03
2023-04-26T00:35:53.323Z,100787.38
2023-04-26T00:38:23.936Z,100794.31
2023-04-26T00:40:54.077Z,100812.31
2023-04-26T00:43:24.520Z,100819.59
2023-04-26T00:45:54.997Z,100820.66
2023-04-26T00:48:25.667Z,100823.00
2023-04-26T00:50:55.719Z,100830.28
2023-04-26T00:53:26.633Z,100833.34
2023-04-26T00:55:57.349Z,100836.91
2023-04-26T00:58:28.124Z,100836.38
2023-04-26T01:00:58.640Z,100833.34
2023-04-26T01:03:29.257Z,100836.88
2023-04-26T01:06:00.627Z,100844.03
2023-04-26T01:08:30.850Z,100832.25
2023-04-26T01:11:01.488Z,100829.75
2023-04-26T01:13:33.467Z,100822.25
2023-04-26T01:16:04.273Z,100821.03
2023-04-26T01:18:34.289Z,100820.16
2023-04-26T01:21:06.132Z,100814.25
2023-04-26T01:23:36.169Z,100811.06
2023-04-26T01:26:07.797Z,100808.75
2023-04-26T01:28:37.936Z,100813.34
2023-04-26T01:31:08.931Z,100813.91
2023-04-26T01:33:39.025Z,100818.16
2023-04-26T01:36:12.986Z,100813.38
2023-04-26T01:38:42.973Z,100813.38
2023-04-26T01:41:13.577Z,100806.97
2023-04-26T01:43:43.595Z,100806.09
2023-04-26T01:46:14.064Z,100806.09
2023-04-26T01:48:44.160Z,100813.91
2023-04-26T01:51:14.862Z,100814.09
2023-04-26T01:53:44.868Z,100813.72
2023-04-26T01:56:15.424Z,100808.56
2023-04-26T01:58:45.441Z,100813.19
2023-04-26T02:01:15.930Z,100804.78
2023-04-26T02:03:47.523Z,100802.09
2023-04-26T02:06:18.413Z,100807.97
2023-04-26T02:08:48.873Z,100797.13
2023-04-26T02:11:19.376Z,100791.59
2023-04-26T02:13:49.421Z,100793.56
2023-04-26T02:16:23.630Z,100796.25
2023-04-26T02:18:54.720Z,100801.94
2023-04-26T02:21:25.404Z,100796.41
2023-04-26T02:23:55.630Z,100800.72
2023-04-26T02:26:28.108Z,100808.34
2023-04-26T02:28:59.187Z,100806.97
2023-04-26T02:31:30.351Z,100813.38
2023-04-26T02:34:00.418Z,100813.03
2023-04-26T02:36:31.256Z,100813.03
2023-04-26T02:39:02.041Z,100816.75
2023-04-26T02:41:34.443Z,100809.06
2023-04-26T02:44:04.511Z,100813.19
2023-04-26T02:46:35.046Z,100819.09
2023-04-26T02:49:05.302Z,100821.75
2023-04-26T02:51:35.916Z,100823.53
2023-04-26T02:54:07.067Z,100830.66
2023-04-26T02:56:37.680Z,100827.28
2023-04-26T02:59:08.281Z,100823.00
2023-04-26T03:01:38.819Z,100813.03
2023-04-26T03:04:09.481Z,100811.94
2023-04-26T03:06:40.705Z,100807.84
2023-04-26T03:09:10.714Z,100810.53
2023-04-26T03:12:02.508Z,100808.34
2023-04-26T03:14:33.262Z,100811.75
2023-04-26T03:17:04.634Z,100813.53
2023-04-26T03:19:35.872Z,100812.28
2023-04-26T03:22:07.586Z,100813.16
2023-04-26T03:24:37.526Z,100807.25
2023-04-26T03:27:07.946Z,100794.81
2023-04-26T03:29:38.013Z,100798.91
2023-04-26T03:32:09.003Z,100801.41
2023-04-26T03:34:38.995Z,100791.94
2023-04-26T03:37:09.017Z,100788.66
2023-04-26T03:39:41.306Z,100781.63
2023-04-26T03:42:12.460Z,100774.44
2023-04-26T03:44:43.096Z,100774.03
2023-04-26T03:47:13.283Z,100785.41
2023-04-26T03:49:44.122Z,100781.00
2023-04-26T03:52:14.133Z,100786.19
2023-04-26T03:54:44.597Z,100775.84
2023-04-26T03:57:14.966Z,100773.34
2023-04-26T03:59:45.359Z,100782.97
2023-04-26T04:02:15.913Z,100780.31
2023-04-26T04:04:46.659Z,100787.28
2023-04-26T04:07:17.923Z,100796.19
2023-04-26T04:09:48.564Z,100798.31
2023-04-26T04:12:18.716Z,100789.47
2023-04-26T04:14:49.324Z,100791.63
2023-04-26T04:17:19.792Z,100782.50
2023-04-26T04:19:50.299Z,100779.28
2023-04-26T04:22:20.179Z,100772.19
2023-04-26T04:24:50.594Z,100766.41
2023-04-26T04:27:22.346Z,100758.91
2023-04-26T04:29:52.831Z,100761.38
2023-04-26T04:32:24.930Z,100755.88
2023-04-26T04:34:55.485Z,100752.31
2023-04-26T04:37:26.801Z,100744.81
2023-04-26T04:39:57.806Z,100746.94
2023-04-26T04:42:30.689Z,100750.84
2023-04-26T04:45:01.141Z,100753.84
2023-04-26T04:47:32.121Z,100752.53
2023-04-26T04:50:03.148Z,100751.47
2023-04-26T04:52:34.458Z,100742.91
2023-04-26T04:55:06.039Z,100740.22
2023-04-26T04:57:39.040Z,100720.81
2023-04-26T05:00:11.473Z,100727.22
2023-04-26T05:03:04.413Z,100722.72
2023-04-26T05:05:35.235Z,100721.28
2023-04-26T05:08:08.826Z,100727.22
2023-04-26T05:10:39.629Z,100729.34
2023-04-26T05:13:09.860Z,100723.28
2023-04-26T05:15:41.479Z,100714.41
2023-04-26T05:18:11.522Z,100721.09
2023-04-26T05:20:42.677Z,100716.97
2023-04-26T05:23:12.738Z,100723.78
2023-04-26T05:25:43.267Z,100723.16
2023-04-26T05:28:43.293Z,100714.84
2023-04-26T05:31:27.247Z,100719.16
2023-04-26T05:34:20.647Z,100709.75
2023-04-26T05:36:56.912Z,100705.88
2023-04-26T05:39:27.191Z,100703.72
2023-04-26T05:41:57.647Z,100708.84
2023-04-26T05:44:28.020Z,100699.31
2023-04-26T05:46:58.944Z,100701.56
2023-04-26T05:49:29.729Z,100705.03
2023-04-26T05:52:04.731Z,100695.13
2023-04-26T05:54:34.758Z,100700.16
2023-04-26T05:57:05.239Z,100691.34
2023-04-26T05:59:38.396Z,100689.66
2023-04-26T06:02:09.005Z,100685.44
2023-04-26T06:04:39.396Z,100682.13
2023-04-26T06:07:13.953Z,100677.38
2023-04-26T06:09:44.190Z,100681.72
2023-04-26T06:12:14.698Z,100668.59
2023-04-26T06:14:47.244Z,100671.38
2023-04-26T06:17:22.618Z,100665.59
2023-04-26T06:19:53.038Z,100670.34
2023-04-26T06:22:23.506Z,100668.63
2023-04-26T06:24:53.589Z,100666.13
2023-04-26T06:27:24.197Z,100667.97
2023-04-26T06:29:54.385Z,100654.63
2023-04-26T06:32:26.373Z,100657.66
2023-04-26T06:34:57.218Z,100653.91
2023-04-26T06:37:29.355Z,100656.41
2023-04-26T06:39:59.580Z,100664.91
2023-04-26T06:42:30.062Z,100660.63
2023-04-26T06:45:25.348Z,100657.03
2023-04-26T06:47:58.221Z,100656.66
2023-04-26T06:50:28.519Z,100655.63
2023-04-26T06:52:59.211Z,100661.16
2023-04-26T06:55:29.214Z,100654.06
2023-04-26T06:57:59.655Z,100646.94
2023-04-26T07:00:30.946Z,100647.63
2023-04-26T07:03:01.482Z,100651.91
2023-04-26T07:05:31.625Z,100648.34
2023-04-26T07:08:02.089Z,100642.06
2023-04-26T07:10:33.527Z,100647.56
2023-04-26T07:13:05.321Z,100641.00
2023-04-26T07:15:37.480Z,100643.69
2023-04-26T07:18:07.906Z,100640.25
2023-04-26T07:20:37.969Z,100641.97
2023-04-26T07:23:08.493Z,100654.97
2023-04-26T07:25:38.477Z,100639.78
2023-04-26T07:28:09.738Z,100639.41
2023-04-26T07:30:39.747Z,100634.41
2023-04-26T07:33:09.649Z,100632.50
2023-04-26T07:35:40.164Z,100635.16
2023-04-26T07:38:10.894Z,100639.34
2023-04-26T07:40:41.630Z,100639.16
2023-04-26T07:43:11.650Z,100631.38
2023-04-26T07:45:42.115Z,100616.81
2023-04-26T07:48:12.339Z,100617.88
2023-04-26T07:50:42.924Z,100620.22
2023-04-26T07:53:12.818Z,100619.88
2023-04-26T07:55:43.302Z,100623.97
2023-04-26T07:58:15.689Z,100628.50
2023-04-26T08:00:46.232Z,100636.75
2023-04-26T08:03:22.261Z,100639.38
2023-04-26T08:05:53.087Z,100639.09
2023-04-26T08:08:29.222Z,100643.84
2023-04-26T08:10:59.695Z,100645.66
2023-04-26T08:13:29.798Z,100646.38
2023-04-26T08:16:00.291Z,100645.16
2023-04-26T08:18:30.324Z,100633.59
2023-04-26T08:21:00.804Z,100625.41
2023-04-26T08:23:30.913Z,100636.28
2023-04-26T08:26:01.802Z,100629.88
2023-04-26T08:28:31.921Z,100633.63
2023-04-26T08:31:02.740Z,100637.22
2023-04-26T08:33:34.203Z,100629.69
2023-04-26T08:36:06.167Z,100635.81
2023-04-26T08:38:36.687Z,100623.81
2023-04-26T08:41:08.265Z,100625.03
2023-04-26T08:43:40.114Z,100620.44
2023-04-26T08:46:17.532Z,100632.31
2023-04-26T08:48:56.315Z,100618.66
2023-04-26T08:51:27.131Z,100623.94
2023-04-26T08:53:59.438Z,100627.00
2023-04-26T08:56:29.985Z,100624.69
2023-04-26T08:59:02.072Z,100623.16
2023-04-26T09:01:34.876Z,100623.16
2023-04-26T09:04:05.209Z,100625.25
2023-04-26T09:06:36.873Z,100614.53
2023-04-26T09:09:10.264Z,100614.53
2023-04-26T09:11:58.917Z,100604.78
2023-04-26T09:14:29.302Z,100609.66
2023-04-26T09:16:59.792Z,100607.31
2023-04-26T09:19:45.840Z,100607.63
2023-04-26T09:22:16.283Z,100617.31
2023-04-26T09:24:55.970Z,100624.06
2023-04-26T09:27:38.131Z,100624.06
2023-04-26T09:30:10.544Z,100619.19
2023-04-26T09:32:57.060Z,100624.44
2023-04-26T09:35:45.869Z,100636.06
2023-04-26T09:38:18.911Z,100634.25
2023-04-26T09:40:51.764Z,100638.22
2023-04-26T09:43:23.831Z,100638.69
2023-04-26T09:45:56.282Z,100636.81
2023-04-26T09:48:31.273Z,100643.94
2023-04-26T09:51:02.018Z,100643.47
2023-04-26T09:53:42.332Z,100632.91
2023-04-26T09:56:12.452Z,100638.94
2023-04-26T09:59:02.371Z,100631.47
2023-04-26T10:01:32.561Z,100633.44
2023-04-26T10:04:03.563Z,100640.41
2023-04-26T10:06:34.130Z,100647.41
2023-04-26T10:09:06.678Z,100643.22
2023-04-26T10:11:40.424Z,100649.75
2023-04-26T10:14:11.102Z,100654.41
2023-04-26T10:16:42.207Z,100644.66
2023-04-26T10:19:13.183Z,100661.72
2023-04-26T10:21:45.606Z,100658.91
2023-04-26T10:24:17.553Z,100664.59
2023-04-26T10:26:58.542Z,100669.59
2023-04-26T10:30:00.751Z,100670.81
2023-04-26T10:32:30.856Z,100669.41
2023-04-26T10:35:15.049Z,100670.41
2023-04-26T10:38:11.318Z,100661.72
2023-04-26T10:40:42.814Z,100658.88
2023-04-26T10:43:20.074Z,100667.38
2023-04-26T10:45:51.701Z,100661.84
2023-04-26T10:48:32.143Z,100664.31
2023-04-26T10:51:02.773Z,100655.41
2023-04-26T10:53:34.379Z,100658.63
2023-04-26T10:56:05.550Z,100666.59
2023-04-26T10:58:37.123Z,100679.06
2023-04-26T11:01:07.750Z,100682.72
2023-04-26T11:03:38.586Z,100679.16
2023-04-26T11:06:16.477Z,100668.00
2023-04-26T11:08:47.000Z,100672.09
2023-04-26T11:11:20.591Z,100681.13
2023-04-26T11:13:50.668Z,100683.97
2023-04-26T11:16:21.302Z,100683.28
2023-04-26T11:18:51.645Z,100685.81
2023-04-26T11:21:23.585Z,100683.84
2023-04-26T11:23:57.055Z,100690.63
2023-04-26T11:26:36.287Z,100692.25
2023-04-26T11:29:10.764Z,100687.97
2023-04-26T11:31:41.896Z,100686.50
2023-04-26T11:34:14.062Z,100690.94
2023-04-26T11:36:47.661Z,100699.81
2023-04-26T11:39:17.786Z,100697.94
2023-04-26T11:41:48.269Z,100699.22
2023-04-26T11:44:22.030Z,100703.75
2023-04-26T11:46:52.994Z,100710.50
2023-04-26T11:49:23.249Z,100709.66
2023-04-26T11:51:53.902Z,100712.16
2023-04-26T11:54:35.795Z,100713.75
2023-04-26T11:57:19.913Z,100717.03
2023-04-26T11:59:49.911Z,100710.06
2023-04-26T12:02:21.932Z,100722.47
2023-04-26T12:05:00.937Z,100732.72
2023-04-26T12:07:40.462Z,100735.66
2023-04-26T12:10:25.667Z,100748.19
2023-04-26T12:12:58.072Z,100739.84
2023-04-26T12:15:34.666Z,100748.41
2023-04-26T12:18:13.327Z,100745.59
2023-04-26T12:20:45.062Z,100750.91
2023-04-26T12:23:17.819Z,100749.56
2023-04-26T12:26:00.863Z,100744.09
2023-04-26T12:28:31.533Z,100745.09
2023-04-26T12:31:02.710Z,100737.19
2023-04-26T12:33:34.180Z,100736.13
2023-04-26T12:36:12.912Z,100745.09
2023-04-26T12:38:43.971Z,100751.91
2023-04-26T12:41:13.975Z,100758.81
2023-04-26T12:43:44.462Z,100747.59
2023-04-26T12:46:14.569Z,100754.91
2023-04-26T12:48:45.124Z,100756.88
2023-04-26T12:51:15.080Z,100752.16
2023-04-26T12:53:45.567Z,100752.31
2023-04-26T12:56:17.432Z,100743.69
2023-04-26T12:58:51.181Z,100739.34
2023-04-26T13:01:21.262Z,100751.50
2023-04-26T13:03:52.153Z,100739.06
2023-04-26T13:06:22.372Z,100738.19
2023-04-26T13:08:53.076Z,100733.72
2023-04-26T13:11:23.282Z,100734.53
2023-04-26T13:13:53.883Z,100739.47
2023-04-26T13:16:23.948Z,100746.84
2023-04-26T13:18:55.628Z,100743.66
2023-04-26T13:21:25.816Z,100752.94
2023-04-26T13:23:56.241Z,100756.91
2023-04-26T13:26:27.825Z,100746.44
2023-04-26T13:28:58.083Z,100739.66
2023-04-26T13:31:28.199Z,100740.72
2023-04-26T13:33:58.717Z,100739.53
2023-04-26T13:36:29.104Z,100739.75
2023-04-26T13:38:59.540Z,100739.44
2023-04-26T13:41:34.470Z,100733.81
2023-04-26T13:44:06.103Z,100729.81
2023-04-26T13:46:36.731Z,100727.22
2023-04-26T13:49:08.306Z,100713.72
2023-04-26T13:51:38.772Z,100713.28
2023-04-26T13:54:09.394Z,100714.78
2023-04-26T13:56:39.621Z,100699.06
2023-04-26T13:59:10.065Z,100700.06
2023-04-26T14:01:41.714Z,100707.34
2023-04-26T14:04:12.012Z,100712.19
2023-04-26T14:06:42.109Z,100712.63
2023-04-26T14:09:13.347Z,100711.91
2023-04-26T14:11:43.864Z,100701.94
2023-04-26T14:14:15.075Z,100698.69
2023-04-26T14:16:45.004Z,100697.28
2023-04-26T14:19:18.242Z,100688.25
2023-04-26T14:21:48.324Z,100700.88
2023-04-26T14:24:18.766Z,100704.66
2023-04-26T14:26:48.739Z,100711.41
2023-04-26T14:29:19.167Z,100696.34
2023-04-26T14:31:49.271Z,100692.31
2023-04-26T14:34:19.924Z,100691.72
2023-04-26T14:36:50.365Z,100689.72
2023-04-26T14:39:23.330Z,100677.44
2023-04-26T14:41:56.452Z,100668.78
2023-04-26T14:44:27.414Z,100672.88
2023-04-26T14:46:57.557Z,100671.72
2023-04-26T14:49:28.098Z,100651.31
2023-04-26T14:51:58.119Z,100647.06
2023-04-26T14:54:28.524Z,100639.66
2023-04-26T14:56:59.350Z,100637.47
2023-04-26T14:59:29.792Z,100640.50
2023-04-26T15:02:00.125Z,100621.13
2023-04-26T15:04:31.015Z,100622.47
2023-04-26T15:07:01.236Z,100626.25
2023-04-26T15:09:31.997Z,100621.34
2023-04-26T15:12:03.657Z,100628.88
2023-04-26T15:14:33.639Z,100622.31
2023-04-26T15:17:03.338Z,100613.22
2023-04-26T15:19:33.668Z,100610.78
2023-04-26T15:22:04.084Z,100604.34
2023-04-26T15:24:38.342Z,100605.13
2023-04-26T15:27:08.754Z,100606.00
2023-04-26T15:29:38.849Z,100598.16
2023-04-26T15:32:09.277Z,100586.28
2023-04-26T15:34:44.375Z,100585.94
2023-04-26T15:37:14.917Z,100590.53
2023-04-26T15:39:45.183Z,100585.00
2023-04-26T15:42:15.575Z,100590.34
2023-04-26T15:44:45.598Z,100583.50
2023-04-26T15:47:16.000Z,100576.75
2023-04-26T15:49:46.081Z,100578.56
2023-04-26T15:52:18.196Z,100571.22
2023-04-26T15:54:48.324Z,100564.84
2023-04-26T15:57:18.834Z,100555.47
2023-04-26T15:59:48.882Z,100544.91
2023-04-26T16:02:19.387Z,100538.69
2023-04-26T16:04:49.909Z,100541.66
2023-04-26T16:07:20.824Z,100533.97
2023-04-26T16:09:50.852Z,100542.81
2023-04-26T16:12:21.266Z,100534.69
2023-04-26T16:14:52.809Z,100522.13
2023-04-26T16:17:23.254Z,100520.69
2023-04-26T16:19:53.358Z,100521.28
2023-04-26T16:22:23.773Z,100520.06
2023-04-26T16:24:53.775Z,100510.25
2023-04-26T16:27:24.204Z,100509.06
2023-04-26T16:29:55.160Z,100514.47
2023-04-26T16:32:27.307Z,100499.41
2023-04-26T16:34:57.527Z,100507.44
2023-04-26T16:37:28.042Z,100496.09
2023-04-26T16:39:58.327Z,100494.16
2023-04-26T16:42:31.176Z,100489.53
2023-04-26T16:45:01.284Z,100492.16
2023-04-26T16:47:31.702Z,100496.44
2023-04-26T16:50:01.963Z,100490.28
2023-04-26T16:52:33.234Z,100484.78
2023-04-26T16:55:03.443Z,100482.69
2023-04-26T16:57:34.275Z,100490.63
2023-04-26T17:00:06.449Z,100478.66
2023-04-26T17:02:37.308Z,100484.81
2023-04-26T17:05:08.061Z,100477.41
2023-04-26T17:07:38.953Z,100482.84
2023-04-26T17:10:09.798Z,100480.00
2023-04-26T17:12:40.353Z,100485.63
2023-04-26T17:15:10.856Z,100477.41
2023-04-26T17:17:41.319Z,100479.38
2023-04-26T17:20:14.598Z,100464.38
2023-04-26T17:22:45.079Z,100466.66
2023-04-26T17:25:15.281Z,100460.50
2023-04-26T17:27:45.809Z,100447.47
2023-04-26T17:30:16.448Z,100446.53
2023-04-26T17:32:47.262Z,100448.88
2023-04-26T17:35:18.237Z,100452.19
2023-04-26T17:37:50.922Z,100440.16
2023-04-26T17:40:22.412Z,100439.72
2023-04-26T17:42:52.484Z,100439.63
2023-04-26T17:45:23.133Z,100449.16
2023-04-26T17:47:53.297Z,100452.81
2023-04-26T17:50:25.260Z,100454.41
2023-04-26T17:52:55.309Z,100452.03
2023-04-26T17:55:25.851Z,100454.66
2023-04-26T17:57:55.848Z,100447.16
2023-04-26T18:00:26.500Z,100441.19
2023-04-26T18:02:58.732Z,100449.03
2023-04-26T18:05:29.324Z,100443.72
2023-04-26T18:08:00.165Z,100442.38
2023-04-26T18:10:30.665Z,100440.78
2023-04-26T18:13:00.703Z,100430.06
2023-04-26T18:15:30.781Z,100429.09
2023-04-26T18:18:01.266Z,100436.63
2023-04-26T18:20:31.446Z,100430.19
2023-04-26T18:23:01.985Z,100434.19
2023-04-26T18:25:32.062Z,100443.69
2023-04-26T18:28:02.492Z,100441.75
2023-04-26T18:30:32.703Z,100440.91
2023-04-26T18:33:03.151Z,100443.28
2023-04-26T18:35:33.216Z,100444.34
2023-04-26T18:38:03.716Z,100440.59
2023-04-26T18:40:33.772Z,100442.31
2023-04-26T18:43:03.610Z,100429.94
2023-04-26T18:45:34.712Z,100426.66
2023-04-26T18:48:04.868Z,100414.09
2023-04-26T18:50:35.985Z,100423.03
2023-04-26T18:53:06.033Z,100424.50
2023-04-26T18:55:36.504Z,100433.72
2023-04-26T18:58:06.604Z,100435.84
2023-04-26T19:00:37.083Z,100442.69
2023-04-26T19:03:07.289Z,100433.31
2023-04-26T19:05:38.508Z,100439.28
2023-04-26T19:08:08.869Z,100439.19
2023-04-26T19:10:39.523Z,100448.34
2023-04-26T19:13:09.510Z,100444.19
2023-04-26T19:15:40.029Z,100450.34
2023-04-26T19:18:10.079Z,100446.00
2023-04-26T19:20:41.057Z,100441.50
2023-04-26T19:23:11.036Z,100439.69
2023-04-26T19:25:41.596Z,100447.63
2023-04-26T19:28:11.599Z,100446.16
2023-04-26T19:30:42.094Z,100456.44
2023-04-26T19:33:12.266Z,100450.81
2023-04-26T19:35:42.843Z,100464.25
2023-04-26T19:38:13.271Z,100461.84
2023-04-26T19:40:45.244Z,100467.63
2023-04-26T19:43:15.277Z,100464.31
2023-04-26T19:45:46.815Z,100461.44
2023-04-26T19:48:17.084Z,100461.84
2023-04-26T19:50:48.599Z,100460.28
2023-04-26T19:53:18.648Z,100473.69
2023-04-26T19:55:49.118Z,100482.50
2023-04-26T19:58:19.159Z,100479.56
2023-04-26T20:00:49.656Z,100478.03
2023-04-26T20:03:19.870Z,100469.44
2023-04-26T20:05:50.634Z,100473.13
2023-04-26T20:08:20.618Z,100472.75
2023-04-26T20:10:51.411Z,100476.84
2023-04-26T20:13:21.473Z,100467.22
2023-04-26T20:15:51.977Z,100465.22
2023-04-26T20:18:22.410Z,100463.66
2023-04-26T20:20:53.631Z,100466.31
2023-04-26T20:23:23.625Z,100461.84
2023-04-26T20:25:54.259Z,100464.38
2023-04-26T20:28:25.626Z,100467.75
2023-04-26T20:30:56.194Z,100465.09
2023-04-26T20:33:26.241Z,100464.78
2023-04-26T20:35:56.811Z,100466.63
2023-04-26T20:38:27.562Z,100471.06
2023-04-26T20:40:59.112Z,100479.38
2023-04-26T20:43:29.662Z,100477.84
2023-04-26T20:46:00.180Z,100473.41
2023-04-26T20:48:29.999Z,100476.91
2023-04-26T20:51:02.557Z,100483.66
2023-04-26T20:53:33.237Z,100485.84
2023-04-26T20:56:03.737Z,100477.97
2023-04-26T20:58:33.782Z,100477.56
2023-04-26T21:01:07.439Z,100480.31
2023-04-26T21:03:38.053Z,100483.63
2023-04-26T21:06:08.745Z,100488.97
2023-04-26T21:08:38.728Z,100497.97
2023-04-26T21:11:09.199Z,100493.28
2023-04-26T21:13:39.017Z,100496.22
2023-04-26T21:16:09.787Z,100494.22
2023-04-26T21:18:39.830Z,100496.09
2023-04-26T21:21:10.284Z,100500.19
2023-04-26T21:23:40.092Z,100496.78
2023-04-26T21:26:10.554Z,100489.72
2023-04-26T21:28:40.542Z,100489.38
2023-04-26T21:31:11.153Z,100492.66
2023-04-26T21:33:41.311Z,100491.84
2023-04-26T21:36:12.445Z,100496.34
2023-04-26T21:38:42.447Z,100500.47
2023-04-26T21:41:12.948Z,100501.22
2023-04-26T21:43:42.951Z,100510.38
2023-04-26T21:46:13.523Z,100517.13
2023-04-26T21:48:43.636Z,100522.63
2023-04-26T21:51:14.282Z,100527.25
2023-04-26T21:53:44.680Z,100533.31
2023-04-26T21:56:15.902Z,100532.41
2023-04-26T21:58:45.990Z,100536.88
2023-04-26T22:01:17.752Z,100540.53
2023-04-26T22:03:50.898Z,100539.03
2023-04-26T22:06:21.546Z,100541.88
2023-04-26T22:08:51.692Z,100547.06
2023-04-26T22:11:22.866Z,100540.38
2023-04-26T22:13:53.048Z,100535.75
2023-04-26T22:16:23.560Z,100541.59
2023-04-26T22:18:53.564Z,100546.41
2023-04-26T22:21:24.062Z,100535.69
2023-04-26T22:23:54.132Z,100537.72
2023-04-26T22:26:24.593Z,100535.75
2023-04-26T22:28:54.779Z,100541.66
2023-04-26T22:31:25.344Z,100545.31
2023-04-26T22:33:55.359Z,100543.81
2023-04-26T22:36:25.648Z,100558.47
2023-04-26T22:38:56.278Z,100563.06
2023-04-26T22:41:26.828Z,100559.88
2023-04-26T22:43:57.623Z,100559.75
2023-04-26T22:46:27.904Z,100557.75
2023-04-26T22:48:58.875Z,100558.47
2023-04-26T22:51:30.058Z,100559.22
2023-04-26T22:54:00.848Z,100556.94
2023-04-26T22:56:31.022Z,100556.66
2023-04-26T22:59:01.475Z,100561.56
2023-04-26T23:01:32.328Z,100561.75
2023-04-26T23:04:02.831Z,100565.38
2023-04-26T23:06:34.251Z,100568.75
2023-04-26T23:09:04.703Z,100577.13
2023-04-26T23:11:34.789Z,100574.31
2023-04-26T23:14:06.734Z,100575.91
2023-04-26T23:16:39.660Z,100574.31
2023-04-26T23:19:10.876Z,100566.44
2023-04-26T23:21:41.275Z,100578.59
2023-04-26T23:24:11.821Z,100587.50
2023-04-26T23:26:41.995Z,100581.13
2023-04-26T23:29:12.817Z,100585.22
2023-04-26T23:31:43.162Z,100591.50
2023-04-26T23:34:13.601Z,100579.91
2023-04-26T23:36:43.518Z,100588.31
2023-04-26T23:39:15.258Z,100584.06
2023-04-26T23:41:46.625Z,100589.22
2023-04-26T23:44:17.033Z,100584.09
2023-04-26T23:46:47.554Z,100590.50
2023-04-26T23:49:18.670Z,100586.22
2023-04-26T23:51:49.294Z,100583.41
2023-04-26T23:54:20.578Z,100585.88
2023-04-26T23:56:50.841Z,100586.06
2023-04-26T23:59:21.253Z,100583.56
